sensor_id;sensor_type;location;lat;lon;timestamp;pressure;altitude;pressure_sealevel;temperature
66027;BMP280;56312;55.976;37.136;2023-02-28T00:00:44;99251.78;;;-1.18
66027;BMP280;56312;55.976;37.136;2023-02-28T00:05:50;99253.47;;;-1.19
66027;BMP280;56312;55.976;37.136;2023-02-28T00:11:00;99249.16;;;-1.24
66027;BMP280;56312;55.976;37.136;2023-02-28T00:16:09;99234.03;;;-1.26
66027;BMP280;56312;55.976;37.136;2023-02-28T00:21:18;99239.97;;;-1.21
66027;BMP280;56312;55.976;37.136;2023-02-28T00:26:25;99235.75;;;-1.22
66027;BMP280;56312;55.976;37.136;2023-02-28T00:31:32;99222.31;;;-1.21
66027;BMP280;56312;55.976;37.136;2023-02-28T00:36:38;99218.13;;;-1.22
66027;BMP280;56312;55.976;37.136;2023-02-28T00:41:44;99208.03;;;-1.22
66027;BMP280;56312;55.976;37.136;2023-02-28T00:46:50;99194.59;;;-1.21
66027;BMP280;56312;55.976;37.136;2023-02-28T00:51:57;99187.03;;;-1.24
66027;BMP280;56312;55.976;37.136;2023-02-28T00:57:03;99176.94;;;-1.24
66027;BMP280;56312;55.976;37.136;2023-02-28T01:02:09;99161.88;;;-1.18
66027;BMP280;56312;55.976;37.136;2023-02-28T01:07:16;99164.31;;;-1.25
66027;BMP280;56312;55.976;37.136;2023-02-28T01:12:22;99146.72;;;-1.21
66027;BMP280;56312;55.976;37.136;2023-02-28T01:17:28;99134.97;;;-1.20
66027;BMP280;56312;55.976;37.136;2023-02-28T01:22:34;99117.31;;;-1.23
66027;BMP280;56312;55.976;37.136;2023-02-28T01:27:41;99099.69;;;-1.20
66027;BMP280;56312;55.976;37.136;2023-02-28T01:32:47;99089.56;;;-1.25
66027;BMP280;56312;55.976;37.136;2023-02-28T01:37:53;99083.72;;;-1.22
66027;BMP280;56312;55.976;37.136;2023-02-28T01:43:00;99082.00;;;-1.25
66027;BMP280;56312;55.976;37.136;2023-02-28T01:48:07;99070.25;;;-1.24
66027;BMP280;56312;55.976;37.136;2023-02-28T01:53:16;99063.56;;;-1.22
66027;BMP280;56312;55.976;37.136;2023-02-28T01:58:27;99054.34;;;-1.19
66027;BMP280;56312;55.976;37.136;2023-02-28T02:03:33;99032.41;;;-1.29
66027;BMP280;56312;55.976;37.136;2023-02-28T02:08:41;99014.78;;;-1.26
66027;BMP280;56312;55.976;37.136;2023-02-28T02:24:53;98998.84;;;-1.25
66027;BMP280;56312;55.976;37.136;2023-02-28T02:46:29;98959.28;;;-1.32
66027;BMP280;56312;55.976;37.136;2023-02-28T02:51:40;98945.94;;;-1.23
66027;BMP280;56312;55.976;37.136;2023-02-28T02:56:48;98934.19;;;-1.23
66027;BMP280;56312;55.976;37.136;2023-02-28T03:01:57;98929.09;;;-1.30
66027;BMP280;56312;55.976;37.136;2023-02-28T03:07:07;98912.28;;;-1.31
66027;BMP280;56312;55.976;37.136;2023-02-28T03:12:13;98919.00;;;-1.30
66027;BMP280;56312;55.976;37.136;2023-02-28T03:22:50;98902.13;;;-1.37
66027;BMP280;56312;55.976;37.136;2023-02-28T03:28:12;98911.38;;;-1.39
66027;BMP280;56312;55.976;37.136;2023-02-28T03:33:42;98897.97;;;-1.35
66027;BMP280;56312;55.976;37.136;2023-02-28T03:39:04;98897.94;;;-1.36
66027;BMP280;56312;55.976;37.136;2023-02-28T03:44:35;98885.34;;;-1.36
66027;BMP280;56312;55.976;37.136;2023-02-28T03:49:42;98876.09;;;-1.37
66027;BMP280;56312;55.976;37.136;2023-02-28T03:55:02;98862.59;;;-1.45
66027;BMP280;56312;55.976;37.136;2023-02-28T04:00:17;98849.19;;;-1.41
66027;BMP280;56312;55.976;37.136;2023-02-28T04:05:27;98830.72;;;-1.40
66027;BMP280;56312;55.976;37.136;2023-02-28T04:10:34;98824.81;;;-1.45
66027;BMP280;56312;55.976;37.136;2023-02-28T04:15:40;98819.88;;;-1.35
66027;BMP280;56312;55.976;37.136;2023-02-28T04:20:46;98811.41;;;-1.41
66027;BMP280;56312;55.976;37.136;2023-02-28T04:25:54;98805.59;;;-1.34
66027;BMP280;56312;55.976;37.136;2023-02-28T04:31:02;98803.84;;;-1.41
66027;BMP280;56312;55.976;37.136;2023-02-28T04:36:10;98794.59;;;-1.45
66027;BMP280;56312;55.976;37.136;2023-02-28T04:41:16;98790.47;;;-1.34
66027;BMP280;56312;55.976;37.136;2023-02-28T04:46:22;98782.91;;;-1.39
66027;BMP280;56312;55.976;37.136;2023-02-28T04:51:29;98778.66;;;-1.41
66027;BMP280;56312;55.976;37.136;2023-02-28T04:56:36;98754.34;;;-1.36
66027;BMP280;56312;55.976;37.136;2023-02-28T05:01:45;98743.41;;;-1.41
66027;BMP280;56312;55.976;37.136;2023-02-28T05:06:52;98732.47;;;-1.46
66027;BMP280;56312;55.976;37.136;2023-02-28T05:11:58;98718.22;;;-1.41
66027;BMP280;56312;55.976;37.136;2023-02-28T05:17:05;98700.59;;;-1.37
66027;BMP280;56312;55.976;37.136;2023-02-28T05:22:13;98672.88;;;-1.41
66027;BMP280;56312;55.976;37.136;2023-02-28T05:27:22;98683.78;;;-1.45
66027;BMP280;56312;55.976;37.136;2023-02-28T05:32:28;98686.28;;;-1.44
66027;BMP280;56312;55.976;37.136;2023-02-28T05:37:35;98678.72;;;-1.45
66027;BMP280;56312;55.976;37.136;2023-02-28T05:42:41;98671.19;;;-1.45
66027;BMP280;56312;55.976;37.136;2023-02-28T05:47:47;98651.03;;;-1.39
66027;BMP280;56312;55.976;37.136;2023-02-28T05:52:54;98635.94;;;-1.42
66027;BMP280;56312;55.976;37.136;2023-02-28T05:58:00;98635.94;;;-1.42
66027;BMP280;56312;55.976;37.136;2023-02-28T06:03:06;98606.53;;;-1.40
66027;BMP280;56312;55.976;37.136;2023-02-28T06:08:12;98579.69;;;-1.38
66027;BMP280;56312;55.976;37.136;2023-02-28T06:13:19;98572.97;;;-1.42
66027;BMP280;56312;55.976;37.136;2023-02-28T06:18:25;98553.66;;;-1.36
66027;BMP280;56312;55.976;37.136;2023-02-28T06:23:31;98524.25;;;-1.41
66027;BMP280;56312;55.976;37.136;2023-02-28T06:28:37;98539.38;;;-1.41
66027;BMP280;56312;55.976;37.136;2023-02-28T06:33:44;98522.56;;;-1.39
66027;BMP280;56312;55.976;37.136;2023-02-28T06:38:51;98490.69;;;-1.37
66027;BMP280;56312;55.976;37.136;2023-02-28T06:44:00;98487.31;;;-1.41
66027;BMP280;56312;55.976;37.136;2023-02-28T06:49:06;98490.66;;;-1.49
66027;BMP280;56312;55.976;37.136;2023-02-28T06:54:14;98499.91;;;-1.41
66027;BMP280;56312;55.976;37.136;2023-02-28T06:59:20;98494.88;;;-1.42
66027;BMP280;56312;55.976;37.136;2023-02-28T07:04:27;98484.78;;;-1.48
66027;BMP280;56312;55.976;37.136;2023-02-28T07:09:33;98483.13;;;-1.46
66027;BMP280;56312;55.976;37.136;2023-02-28T07:14:40;98474.72;;;-1.47
66027;BMP280;56312;55.976;37.136;2023-02-28T07:19:46;98454.53;;;-1.57
66027;BMP280;56312;55.976;37.136;2023-02-28T07:24:52;98447.00;;;-1.54
66027;BMP280;56312;55.976;37.136;2023-02-28T07:29:58;98441.97;;;-1.54
66027;BMP280;56312;55.976;37.136;2023-02-28T07:35:07;98419.31;;;-1.54
66027;BMP280;56312;55.976;37.136;2023-02-28T07:40:14;98425.16;;;-1.52
66027;BMP280;56312;55.976;37.136;2023-02-28T07:45:20;98444.50;;;-1.50
66027;BMP280;56312;55.976;37.136;2023-02-28T07:50:27;98480.59;;;-1.43
66027;BMP280;56312;55.976;37.136;2023-02-28T07:55:36;98484.78;;;-1.45
66027;BMP280;56312;55.976;37.136;2023-02-28T08:00:42;98493.19;;;-1.49
66027;BMP280;56312;55.976;37.136;2023-02-28T08:05:48;98484.78;;;-1.44
66027;BMP280;56312;55.976;37.136;2023-02-28T08:10:57;98482.28;;;-1.45
66027;BMP280;56312;55.976;37.136;2023-02-28T08:16:08;98483.13;;;-1.46
66027;BMP280;56312;55.976;37.136;2023-02-28T08:21:14;98476.38;;;-1.49
66027;BMP280;56312;55.976;37.136;2023-02-28T08:26:20;98476.38;;;-1.47
66027;BMP280;56312;55.976;37.136;2023-02-28T08:31:27;98450.38;;;-1.46
66027;BMP280;56312;55.976;37.136;2023-02-28T08:36:33;98415.94;;;-1.44
66027;BMP280;56312;55.976;37.136;2023-02-28T08:41:39;98431.91;;;-1.42
66027;BMP280;56312;55.976;37.136;2023-02-28T08:46:47;98436.13;;;-1.38
66027;BMP280;56312;55.976;37.136;2023-02-28T08:51:53;98427.72;;;-1.37
66027;BMP280;56312;55.976;37.136;2023-02-28T08:57:00;98437.78;;;-1.36
66027;BMP280;56312;55.976;37.136;2023-02-28T09:02:08;98436.94;;;-1.36
66027;BMP280;56312;55.976;37.136;2023-02-28T09:07:17;98426.03;;;-1.35
66027;BMP280;56312;55.976;37.136;2023-02-28T09:12:24;98414.28;;;-1.35
66027;BMP280;56312;55.976;37.136;2023-02-28T09:17:32;98400.00;;;-1.32
66027;BMP280;56312;55.976;37.136;2023-02-28T09:22:38;98382.34;;;-1.32
66027;BMP280;56312;55.976;37.136;2023-02-28T09:27:44;98378.19;;;-1.31
66027;BMP280;56312;55.976;37.136;2023-02-28T09:32:51;98376.50;;;-1.31
66027;BMP280;56312;55.976;37.136;2023-02-28T09:37:57;98354.66;;;-1.33
66027;BMP280;56312;55.976;37.136;2023-02-28T09:43:03;98352.13;;;-1.29
66027;BMP280;56312;55.976;37.136;2023-02-28T09:48:15;98321.91;;;-1.29
66027;BMP280;56312;55.976;37.136;2023-02-28T09:53:26;98324.44;;;-1.29
66027;BMP280;56312;55.976;37.136;2023-02-28T09:58:51;98320.25;;;-1.27
66027;BMP280;56312;55.976;37.136;2023-02-28T10:09:52;98318.56;;;-1.31
66027;BMP280;56312;55.976;37.136;2023-02-28T10:15:01;98310.16;;;-1.27
66027;BMP280;56312;55.976;37.136;2023-02-28T10:20:10;98300.94;;;-1.23
66027;BMP280;56312;55.976;37.136;2023-02-28T10:25:23;98287.47;;;-1.25
66027;BMP280;56312;55.976;37.136;2023-02-28T10:30:31;98283.28;;;-1.25
66027;BMP280;56312;55.976;37.136;2023-02-28T10:35:37;98280.78;;;-1.23
66027;BMP280;56312;55.976;37.136;2023-02-28T10:40:43;98276.56;;;-1.23
66027;BMP280;56312;55.976;37.136;2023-02-28T10:46:01;98264.81;;;-1.22
66027;BMP280;56312;55.976;37.136;2023-02-28T10:51:10;98245.50;;;-1.19
66027;BMP280;56312;55.976;37.136;2023-02-28T10:56:24;98261.44;;;-1.18
66027;BMP280;56312;55.976;37.136;2023-02-28T11:06:56;98261.47;;;-1.20
66027;BMP280;56312;55.976;37.136;2023-02-28T11:12:05;98259.78;;;-1.24
66027;BMP280;56312;55.976;37.136;2023-02-28T11:17:17;98232.88;;;-1.22
66027;BMP280;56312;55.976;37.136;2023-02-28T11:22:28;98219.44;;;-1.21
66027;BMP280;56312;55.976;37.136;2023-02-28T11:27:51;98216.94;;;-1.19
66027;BMP280;56312;55.976;37.136;2023-02-28T11:33:00;98201.81;;;-1.19
66027;BMP280;56312;55.976;37.136;2023-02-28T11:38:13;98192.56;;;-1.20
66027;BMP280;56312;55.976;37.136;2023-02-28T11:43:23;98189.22;;;-1.22
66027;BMP280;56312;55.976;37.136;2023-02-28T11:54:12;98180.00;;;-1.23
66027;BMP280;56312;55.976;37.136;2023-02-28T12:10:25;98164.03;;;-1.21
66027;BMP280;56312;55.976;37.136;2023-02-28T12:15:42;98150.59;;;-1.23
66027;BMP280;56312;55.976;37.136;2023-02-28T12:32:09;98110.31;;;-1.32
66027;BMP280;56312;55.976;37.136;2023-02-28T12:38:04;98106.97;;;-1.31
66027;BMP280;56312;55.976;37.136;2023-02-28T12:43:16;98101.94;;;-1.31
66027;BMP280;56312;55.976;37.136;2023-02-28T12:48:27;98098.56;;;-1.33
66027;BMP280;56312;55.976;37.136;2023-02-28T12:54:00;98094.38;;;-1.31
66027;BMP280;56312;55.976;37.136;2023-02-28T13:10:11;98055.75;;;-1.35
66027;BMP280;56312;55.976;37.136;2023-02-28T13:15:25;98053.22;;;-1.30
66027;BMP280;56312;55.976;37.136;2023-02-28T13:20:34;98057.44;;;-1.33
66027;BMP280;56312;55.976;37.136;2023-02-28T13:36:07;98054.09;;;-1.35
66027;BMP280;56312;55.976;37.136;2023-02-28T13:41:42;98063.31;;;-1.33
66027;BMP280;56312;55.976;37.136;2023-02-28T14:03:10;98031.41;;;-1.33
66027;BMP280;56312;55.976;37.136;2023-02-28T14:07:57;98024.66;;;-1.32
66027;BMP280;56312;55.976;37.136;2023-02-28T14:18:33;98009.59;;;-1.34
66027;BMP280;56312;55.976;37.136;2023-02-28T14:34:46;98022.19;;;-1.34
66027;BMP280;56312;55.976;37.136;2023-02-28T14:40:00;98013.78;;;-1.36
66027;BMP280;56312;55.976;37.136;2023-02-28T14:45:17;98013.78;;;-1.36
66027;BMP280;56312;55.976;37.136;2023-02-28T14:50:32;97999.53;;;-1.34
66027;BMP280;56312;55.976;37.136;2023-02-28T14:55:43;98001.19;;;-1.33
66027;BMP280;56312;55.976;37.136;2023-02-28T15:00:52;97993.63;;;-1.31
66027;BMP280;56312;55.976;37.136;2023-02-28T15:06:12;97984.38;;;-1.29
66027;BMP280;56312;55.976;37.136;2023-02-28T15:11:23;97990.22;;;-1.28
66027;BMP280;56312;55.976;37.136;2023-02-28T15:16:34;97994.47;;;-1.30
66027;BMP280;56312;55.976;37.136;2023-02-28T15:21:45;97992.78;;;-1.30
66027;BMP280;56312;55.976;37.136;2023-02-28T15:26:57;97992.75;;;-1.27
66027;BMP280;56312;55.976;37.136;2023-02-28T15:32:06;97998.63;;;-1.26
66027;BMP280;56312;55.976;37.136;2023-02-28T15:42:38;97991.91;;;-1.26
66027;BMP280;56312;55.976;37.136;2023-02-28T15:47:45;98000.28;;;-1.25
66027;BMP280;56312;55.976;37.136;2023-02-28T15:52:52;97991.06;;;-1.23
66027;BMP280;56312;55.976;37.136;2023-02-28T15:58:00;97997.78;;;-1.24
66027;BMP280;56312;55.976;37.136;2023-02-28T16:03:23;97996.09;;;-1.25
66027;BMP280;56312;55.976;37.136;2023-02-28T16:08:31;98011.22;;;-1.25
66027;BMP280;56312;55.976;37.136;2023-02-28T16:13:37;98028.00;;;-1.25
66027;BMP280;56312;55.976;37.136;2023-02-28T16:18:43;98022.97;;;-1.24
66027;BMP280;56312;55.976;37.136;2023-02-28T16:23:49;98021.28;;;-1.22
66027;BMP280;56312;55.976;37.136;2023-02-28T16:28:56;98013.72;;;-1.19
66027;BMP280;56312;55.976;37.136;2023-02-28T16:34:03;98011.19;;;-1.22
66027;BMP280;56312;55.976;37.136;2023-02-28T16:39:10;98011.19;;;-1.19
66027;BMP280;56312;55.976;37.136;2023-02-28T16:44:35;98012.03;;;-1.20
66027;BMP280;56312;55.976;37.136;2023-02-28T16:49:41;98007.81;;;-1.21
66027;BMP280;56312;55.976;37.136;2023-02-28T16:54:48;98007.00;;;-1.21
66027;BMP280;56312;55.976;37.136;2023-02-28T16:59:55;98013.72;;;-1.19
66027;BMP280;56312;55.976;37.136;2023-02-28T17:05:01;98014.53;;;-1.18
66027;BMP280;56312;55.976;37.136;2023-02-28T17:10:12;98026.31;;;-1.19
66027;BMP280;56312;55.976;37.136;2023-02-28T17:15:22;98022.94;;;-1.21
66027;BMP280;56312;55.976;37.136;2023-02-28T17:20:28;98025.47;;;-1.21
66027;BMP280;56312;55.976;37.136;2023-02-28T17:25:34;98046.44;;;-1.20
66027;BMP280;56312;55.976;37.136;2023-02-28T17:30:40;98047.31;;;-1.20
66027;BMP280;56312;55.976;37.136;2023-02-28T17:35:52;98046.47;;;-1.19
66027;BMP280;56312;55.976;37.136;2023-02-28T17:40:58;98048.13;;;-1.21
66027;BMP280;56312;55.976;37.136;2023-02-28T17:46:05;98051.50;;;-1.22
66027;BMP280;56312;55.976;37.136;2023-02-28T17:51:14;98055.69;;;-1.21
66027;BMP280;56312;55.976;37.136;2023-02-28T17:56:22;98054.88;;;-1.20
66027;BMP280;56312;55.976;37.136;2023-02-28T18:01:30;98058.22;;;-1.21
66027;BMP280;56312;55.976;37.136;2023-02-28T18:06:37;98051.47;;;-1.20
66027;BMP280;56312;55.976;37.136;2023-02-28T18:12:06;98055.69;;;-1.19
66027;BMP280;56312;55.976;37.136;2023-02-28T18:17:12;98069.13;;;-1.19
66027;BMP280;56312;55.976;37.136;2023-02-28T18:22:19;98064.06;;;-1.20
66027;BMP280;56312;55.976;37.136;2023-02-28T18:27:26;98059.91;;;-1.21
66027;BMP280;56312;55.976;37.136;2023-02-28T18:32:32;98066.63;;;-1.22
66027;BMP280;56312;55.976;37.136;2023-02-28T18:37:38;98080.91;;;-1.19
66027;BMP280;56312;55.976;37.136;2023-02-28T18:42:45;98073.31;;;-1.21
66027;BMP280;56312;55.976;37.136;2023-02-28T18:47:51;98076.69;;;-1.22
66027;BMP280;56312;55.976;37.136;2023-02-28T18:52:57;98075.03;;;-1.23
66027;BMP280;56312;55.976;37.136;2023-02-28T18:58:04;98078.38;;;-1.21
66027;BMP280;56312;55.976;37.136;2023-02-28T19:03:10;98082.56;;;-1.21
66027;BMP280;56312;55.976;37.136;2023-02-28T19:08:17;98090.97;;;-1.21
66027;BMP280;56312;55.976;37.136;2023-02-28T19:13:23;98092.66;;;-1.20
66027;BMP280;56312;55.976;37.136;2023-02-28T19:18:30;98094.31;;;-1.19
66027;BMP280;56312;55.976;37.136;2023-02-28T19:23:37;98099.38;;;-1.19
66027;BMP280;56312;55.976;37.136;2023-02-28T19:28:45;98107.75;;;-1.24
66027;BMP280;56312;55.976;37.136;2023-02-28T19:33:51;98108.59;;;-1.22
66027;BMP280;56312;55.976;37.136;2023-02-28T19:38:58;98110.28;;;-1.24
66027;BMP280;56312;55.976;37.136;2023-02-28T19:44:04;98098.56;;;-1.24
66027;BMP280;56312;55.976;37.136;2023-02-28T19:49:11;98101.06;;;-1.24
66027;BMP280;56312;55.976;37.136;2023-02-28T19:54:17;98100.22;;;-1.23
66027;BMP280;56312;55.976;37.136;2023-02-28T19:59:24;98098.50;;;-1.21
66027;BMP280;56312;55.976;37.136;2023-02-28T20:04:30;98092.66;;;-1.20
66027;BMP280;56312;55.976;37.136;2023-02-28T20:09:36;98092.63;;;-1.17
66027;BMP280;56312;55.976;37.136;2023-02-28T20:14:42;98086.75;;;-1.17
66027;BMP280;56312;55.976;37.136;2023-02-28T20:19:49;98089.28;;;-1.16
66027;BMP280;56312;55.976;37.136;2023-02-28T20:24:55;98084.22;;;-1.17
66027;BMP280;56312;55.976;37.136;2023-02-28T20:30:02;98090.09;;;-1.17
66027;BMP280;56312;55.976;37.136;2023-02-28T20:35:09;98074.97;;;-1.17
66027;BMP280;56312;55.976;37.136;2023-02-28T20:40:16;98074.97;;;-1.17
66027;BMP280;56312;55.976;37.136;2023-02-28T20:45:22;98077.50;;;-1.17
66027;BMP280;56312;55.976;37.136;2023-02-28T20:50:29;98062.41;;;-1.15
66027;BMP280;56312;55.976;37.136;2023-02-28T20:55:36;98067.41;;;-1.14
66027;BMP280;56312;55.976;37.136;2023-02-28T21:00:42;98073.31;;;-1.15
66027;BMP280;56312;55.976;37.136;2023-02-28T21:05:49;98075.81;;;-1.13
66027;BMP280;56312;55.976;37.136;2023-02-28T21:10:55;98078.34;;;-1.13
66027;BMP280;56312;55.976;37.136;2023-02-28T21:16:05;98084.22;;;-1.11
66027;BMP280;56312;55.976;37.136;2023-02-28T21:21:14;98084.19;;;-1.13
66027;BMP280;56312;55.976;37.136;2023-02-28T21:26:23;98074.13;;;-1.13
66027;BMP280;56312;55.976;37.136;2023-02-28T21:31:30;98088.44;;;-1.15
66027;BMP280;56312;55.976;37.136;2023-02-28T21:36:39;98081.69;;;-1.13
66027;BMP280;56312;55.976;37.136;2023-02-28T21:41:46;98085.06;;;-1.14
66027;BMP280;56312;55.976;37.136;2023-02-28T21:46:53;98088.44;;;-1.15
66027;BMP280;56312;55.976;37.136;2023-02-28T21:52:01;98095.13;;;-1.12
66027;BMP280;56312;55.976;37.136;2023-02-28T21:57:07;98084.25;;;-1.16
66027;BMP280;56312;55.976;37.136;2023-02-28T22:02:13;98085.94;;;-1.22
66027;BMP280;56312;55.976;37.136;2023-02-28T22:07:20;98077.53;;;-1.23
66027;BMP280;56312;55.976;37.136;2023-02-28T22:12:28;98078.38;;;-1.21
66027;BMP280;56312;55.976;37.136;2023-02-28T22:17:35;98075.88;;;-1.25
66027;BMP280;56312;55.976;37.136;2023-02-28T22:22:41;98073.34;;;-1.28
66027;BMP280;56312;55.976;37.136;2023-02-28T22:27:47;98076.72;;;-1.28
66027;BMP280;56312;55.976;37.136;2023-02-28T22:32:54;98075.91;;;-1.30
66027;BMP280;56312;55.976;37.136;2023-02-28T22:38:00;98062.44;;;-1.32
66027;BMP280;56312;55.976;37.136;2023-02-28T22:43:06;98065.81;;;-1.28
66027;BMP280;56312;55.976;37.136;2023-02-28T22:48:13;98068.34;;;-1.31
66027;BMP280;56312;55.976;37.136;2023-02-28T22:53:19;98063.31;;;-1.30
66027;BMP280;56312;55.976;37.136;2023-02-28T22:58:26;98057.41;;;-1.29
66027;BMP280;56312;55.976;37.136;2023-02-28T23:03:32;98060.75;;;-1.28
66027;BMP280;56312;55.976;37.136;2023-02-28T23:08:39;98066.66;;;-1.31
66027;BMP280;56312;55.976;37.136;2023-02-28T23:13:47;98065.81;;;-1.27
66027;BMP280;56312;55.976;37.136;2023-02-28T23:19:04;98064.97;;;-1.29
66027;BMP280;56312;55.976;37.136;2023-02-28T23:24:14;98064.97;;;-1.29
66027;BMP280;56312;55.976;37.136;2023-02-28T23:29:21;98054.06;;;-1.31
66027;BMP280;56312;55.976;37.136;2023-02-28T23:34:28;98059.09;;;-1.29
66027;BMP280;56312;55.976;37.136;2023-02-28T23:39:37;98064.97;;;-1.29
66027;BMP280;56312;55.976;37.136;2023-02-28T23:44:43;98062.44;;;-1.29
66027;BMP280;56312;55.976;37.136;2023-02-28T23:49:49;98071.66;;;-1.28
66027;BMP280;56312;55.976;37.136;2023-02-28T23:54:56;98075.91;;;-1.33
